KCHD/CHD METAR and TAF weather

Enter ICAO airport designator
Station Type Date Time Source
KCHD METAR 2021/07/28 19:47 UTC NOAA

KCHD 281947Z 00000KT 10SM SKC 37/17 A2995


Station Type Date Time Source
KCHD Decoded METAR 2021/07/28 19:47 UTC NOAA

Chandler, Chandler Municipal Airport, AZ, United States (KCHD) 33-16-09N 111-48-40W
Jul 28, 2021 - 03:47 PM EDT / 2021.07.28 1947 UTC
Wind: Calm:0
Visibility: 10 mile(s):0
Sky conditions: clear
Temperature: 98 F (37 C)
Heat index: 99.0 F (37.2 C):1
Dew Point: 62 F (17 C)
Relative Humidity: 30%
Pressure (altimeter): 29.95 in. Hg (1014 hPa)
ob: KCHD 281947Z 00000KT 10SM SKC 37/17 A2995
cycle: 20

Station Type Date Time Source
KCHD TAF UTC NOAA

Error!

Example: see airport list